Time;durP1;ratioP1;P1;durP2;ratioP2;P2;SDS_P1;SDS_P2;PMS_P1;PMS_P2;Temp;Humidity;BMP_temperature;BMP_pressure;BME280_temperature;BME280_humidity;BME280_pressure;Samples;Min_cycle;Max_cycle;Signal;HPM_P1;HPM_P2
2022/05/28 17:34:58;;;;;;;2.20;1.00;;;;;;;12.45;54.07;98304.38;5019656;28;20412;-81
2022/05/28 17:37:26;;;;;;;3.05;1.10;;;;;;;12.43;54.35;98313.13;5021967;28;20451;-80
2022/05/28 17:39:52;;;;;;;4.28;1.50;;;;;;;12.43;54.63;98307.94;5022468;28;20123;-80
2022/05/28 17:42:18;;;;;;;;;;;;;;;12.48;54.39;98306.03;5046342;28;20030;-81
2022/05/28 17:44:43;;;;;;;5.32;1.80;;;;;;;12.43;54.94;98307.94;5028229;28;19917;-81
2022/05/28 17:47:09;;;;;;;;;;;;;;;12.53;54.67;98314.53;5025422;28;20038;-80
2022/05/28 17:49:34;;;;;;;5.50;2.05;;;;;;;12.54;55.00;98320.56;5031115;28;19914;-81
2022/05/28 17:52:00;;;;;;;;;;;;;;;12.64;54.42;98325.41;5021346;28;20034;-81
2022/05/28 17:54:26;;;;;;;7.15;2.00;;;;;;;12.47;55.27;98319.94;5009755;28;19913;-82
2022/05/28 17:56:51;;;;;;;;;;;;;;;12.54;54.83;98333.59;5033706;28;20041;-83
2022/05/28 17:59:17;;;;;;;7.03;3.60;;;;;;;12.40;55.27;98318.44;5000556;28;20242;-82
2022/05/28 18:01:43;;;;;;;;;;;;;;;12.50;55.21;98335.44;5061596;28;20057;-80
2022/05/28 18:04:15;;;;;;;4.78;3.00;;;;;;;12.35;55.67;98323.78;5027397;28;19914;-82
2022/05/28 18:06:40;;;;;;;6.35;2.60;;;;;;;12.30;56.07;98330.03;5024816;28;20046;-82
2022/05/28 18:09:07;;;;;;;;;;;;;;;12.35;56.17;98341.13;5010234;28;20034;-83
2022/05/28 18:11:33;;;;;;;9.40;3.20;;;;;;;12.25;56.74;98334.53;5015906;28;19957;-81
2022/05/28 18:13:58;;;;;;;;;;;;;;;12.11;57.09;98341.03;5029436;28;20064;-82
2022/05/28 18:16:26;;;;;;;5.05;2.60;;;;;;;11.93;57.67;98329.44;5019970;28;19924;-80
2022/05/28 18:18:52;;;;;;;5.20;2.75;;;;;;;12.03;57.54;98345.59;5025501;28;20111;-80
2022/05/28 18:21:20;;;;;;;;;;;;;;;12.05;57.78;98346.44;5061855;28;20045;-80
2022/05/28 18:23:48;;;;;;;7.15;4.25;;;;;;;11.92;57.78;98338.16;5019140;28;20288;-80
2022/05/28 18:26:15;;;;;;;7.53;4.65;;;;;;;11.90;58.38;98349.47;5047264;28;20050;-82
2022/05/28 18:28:41;;;;;;;8.18;3.65;;;;;;;11.86;59.12;98353.91;5031170;28;20099;-80
2022/05/28 18:31:06;;;;;;;;;;;;;;;12.05;58.19;98351.63;5041367;28;20038;-83
2022/05/28 18:33:34;;;;;;;7.65;2.80;;;;;;;12.03;58.27;98349.94;5008078;28;19976;-83
2022/05/28 18:36:00;;;;;;;4.15;2.00;;;;;;;11.95;58.33;98357.97;5027510;28;20072;-81
2022/05/28 18:38:26;;;;;;;;;;;;;;;12.03;58.87;98361.19;5029368;28;20029;-81
2022/05/28 18:40:52;;;;;;;4.25;1.48;;;;;;;11.97;58.57;98360.56;5029374;28;19964;-82
2022/05/28 18:43:18;;;;;;;;;;;;;;;12.00;59.02;98361.28;5019340;28;20029;-80
2022/05/28 18:45:44;;;;;;;6.93;1.70;;;;;;;11.84;59.33;98366.09;5014783;28;19933;-85
2022/05/28 18:48:10;;;;;;;5.63;1.33;;;;;;;11.80;59.43;98364.47;5027030;28;20026;-81
2022/05/28 18:50:39;;;;;;;;;;;;;;;11.80;59.55;98361.00;5020202;28;20053;-81
2022/05/28 18:55:51;;;;;;;4.13;2.30;;;;;;;11.65;60.31;98362.31;5009893;28;20072;-81
2022/05/28 18:58:17;;;;;;;6.10;3.25;;;;;;;11.56;60.90;98365.19;5015334;28;20039;-82
2022/05/28 19:00:44;;;;;;;7.13;3.22;;;;;;;11.49;60.99;98364.50;5025762;28;20045;-85
2022/05/28 19:03:11;;;;;;;7.75;2.50;;;;;;;11.41;61.67;98374.28;5002584;28;20028;-84
2022/05/28 19:05:42;;;;;;;9.90;2.63;;;;;;;11.27;61.65;98353.00;5013829;28;20393;-80
2022/05/28 19:08:09;;;;;;;5.13;2.30;;;;;;;11.32;61.56;98366.75;5037683;28;20070;-81
2022/05/28 19:10:36;;;;;;;9.38;2.50;;;;;;;11.35;61.90;98371.81;5015090;28;20572;-80
2022/05/28 19:13:02;;;;;;;3.72;1.63;;;;;;;11.30;61.57;98378.91;5037432;28;20042;-81
2022/05/28 19:15:29;;;;;;;2.97;1.30;;;;;;;11.21;61.90;98372.22;5019021;28;20037;-80
2022/05/28 19:17:58;;;;;;;5.22;2.45;;;;;;;11.14;62.36;98368.94;5008726;28;20038;-81
2022/05/28 19:20:25;;;;;;;5.22;2.13;;;;;;;11.23;62.08;98378.22;5013798;28;20124;-80
2022/05/28 19:22:52;;;;;;;;;;;;;;;11.44;61.47;98389.75;5019673;28;20126;-82
2022/05/28 19:28:02;;;;;;;5.28;2.53;;;;;;;11.18;61.74;98380.94;5030104;28;19917;-79
2022/05/28 19:30:28;;;;;;;;;;;;;;;11.28;61.79;98402.31;5013118;28;20511;-80
2022/05/28 19:32:55;;;;;;;4.47;1.50;;;;;;;11.05;62.25;98395.13;5039770;28;19960;-85
2022/05/28 19:35:22;;;;;;;5.43;1.58;;;;;;;11.22;62.47;98401.59;4989378;28;20045;-81
2022/05/28 19:37:48;;;;;;;3.53;1.80;;;;;;;11.20;61.79;98409.44;5018293;28;20041;-82
2022/05/28 19:40:14;;;;;;;;;;;;;;;11.15;62.94;98417.34;5011105;28;20030;-81
2022/05/28 19:42:45;;;;;;;3.90;1.17;;;;;;;11.03;62.67;98422.84;5014459;28;19918;-81
2022/05/28 19:45:14;;;;;;;2.47;1.20;;;;;;;10.91;63.15;98413.66;4996570;28;20176;-84
2022/05/28 19:47:40;;;;;;;3.10;1.15;;;;;;;10.79;63.76;98403.56;5001850;28;20023;-81
2022/05/28 19:50:06;;;;;;;6.40;1.50;;;;;;;10.91;63.70;98423.19;5017117;28;20043;-83
2022/05/28 19:52:32;;;;;;;2.33;1.17;;;;;;;10.90;64.24;98424.06;5015601;28;20022;-84
2022/05/28 19:54:57;;;;;;;;;;;;;;;10.97;63.88;98430.81;5027241;28;20559;-81
2022/05/28 19:57:23;;;;;;;5.15;1.27;;;;;;;10.96;63.20;98413.53;5010997;28;19913;-87
2022/05/28 19:59:50;;;;;;;;;;;;;;;11.09;63.42;98427.91;4998470;28;20144;-81
2022/05/28 20:02:16;;;;;;;4.22;1.52;;;;;;;10.98;63.01;98422.13;5005142;28;19952;-81
2022/05/28 20:04:42;;;;;;;4.70;1.27;;;;;;;10.90;63.40;98416.25;5014215;28;20037;-83
2022/05/28 20:07:08;;;;;;;2.83;1.20;;;;;;;10.79;63.90;98421.75;5001499;28;20029;-83
2022/05/28 20:09:34;;;;;;;3.47;1.42;;;;;;;10.81;63.74;98432.94;5030291;28;20452;-82
2022/05/28 20:12:00;;;;;;;3.38;1.45;;;;;;;10.75;63.91;98429.63;5016009;28;20104;-82
2022/05/28 20:14:30;;;;;;;;;;;;;;;10.99;63.91;98439.38;5011567;28;20212;-81
2022/05/28 20:16:55;;;;;;;5.80;1.48;;;;;;;10.77;63.72;98422.69;4990487;28;19914;-82
2022/05/28 20:19:21;;;;;;;;;;;;;;;10.82;63.33;98441.56;5009561;28;20492;-82
2022/05/28 20:21:48;;;;;;;3.55;1.50;;;;;;;10.64;63.90;98443.72;4997248;28;19917;-82
2022/05/28 20:24:14;;;;;;;2.67;1.45;;;;;;;10.55;64.71;98441.34;5013261;28;20121;-81
2022/05/28 20:26:39;;;;;;;;;;;;;;;10.69;64.12;98448.78;4997056;28;20522;-82
2022/05/28 20:29:06;;;;;;;4.00;1.30;;;;;;;10.59;64.38;98449.91;5013818;28;19939;-84
2022/05/28 20:31:31;;;;;;;5.78;1.50;;;;;;;10.43;64.67;98436.44;4993795;28;20073;-83
2022/05/28 20:33:57;;;;;;;;;;;;;;;10.58;64.17;98456.84;5034648;28;20145;-82
2022/05/28 20:36:25;;;;;;;4.50;1.50;;;;;;;10.40;64.55;98449.44;5033225;28;19956;-81
2022/05/28 20:38:52;;;;;;;4.85;1.55;;;;;;;10.38;64.66;98449.50;4996615;28;20047;-82
2022/05/28 20:41:17;;;;;;;6.32;2.80;;;;;;;10.25;65.21;98442.88;5007950;28;20026;-81
2022/05/28 20:43:43;;;;;;;;;;;;;;;10.30;65.06;98450.56;5015221;28;20040;-81
2022/05/28 20:46:11;;;;;;;4.65;1.70;;;;;;;10.25;65.14;98452.41;5011551;28;19918;-81
2022/05/28 20:49:03;;;;;;;4.35;1.98;;;;;;;10.23;66.18;98443.78;4997831;28;20037;-80
2022/05/28 20:51:35;;;;;;;4.57;2.33;;;;;;;10.08;66.13;98434.59;5001064;28;20073;-81
2022/05/28 20:54:03;;;;;;;3.67;1.75;;;;;;;9.98;66.00;98436.53;5012482;28;20489;-82
2022/05/28 20:56:29;;;;;;;6.05;1.90;;;;;;;10.02;66.87;98421.78;5017242;28;20034;-83
2022/05/28 20:58:55;;;;;;;;;;;;;;;10.10;66.08;98418.13;4996425;28;20072;-81
2022/05/28 21:01:22;;;;;;;3.65;1.50;;;;;;;10.14;65.41;98414.59;5008643;28;19913;-83
2022/05/28 21:03:48;;;;;;;4.85;1.23;;;;;;;10.35;65.18;98421.03;5027664;28;20050;-79
2022/05/28 21:06:17;;;;;;;;;;;;;;;10.58;64.60;98420.53;5028518;28;20064;-81
2022/05/28 21:08:43;;;;;;;4.88;1.70;;;;;;;10.63;64.09;98403.13;5000598;28;19923;-83
2022/05/28 21:11:10;;;;;;;;;;;;;;;10.68;63.55;98409.03;4996410;28;20026;-83
2022/05/28 21:13:36;;;;;;;2.80;1.20;;;;;;;10.45;64.46;98400.97;4995129;28;19917;-81
2022/05/28 21:16:03;;;;;;;4.47;1.50;;;;;;;10.31;64.52;98403.00;5027322;28;20030;-82
2022/05/28 21:18:30;;;;;;;4.93;1.60;;;;;;;10.35;64.51;98412.41;4996261;28;20141;-80
2022/05/28 21:20:56;;;;;;;3.53;1.33;;;;;;;10.29;64.87;98412.56;5011633;28;20042;-80
2022/05/28 21:23:22;;;;;;;;;;;;;;;10.38;64.60;98438.28;5011543;28;20029;-81
2022/05/28 21:29:49;;;;;;;3.95;1.88;;;;;;;10.21;64.53;98435.19;5011217;28;20411;-82
2022/05/28 21:31:18;;;;;;;3.03;1.50;;;;;;;10.06;65.59;98452.75;5006869;28;20042;-81
2022/05/28 21:33:43;;;;;;;;;;;;;;;10.13;65.41;98454.34;4960223;28;20505;-80
2022/05/28 21:36:09;;;;;;;4.05;1.33;;;;;;;10.01;65.22;98457.19;5015862;28;19921;-79
2022/05/28 21:38:35;;;;;;;;;;;;;;;10.05;65.97;98452.81;5033176;28;20049;-80
2022/05/28 21:41:02;;;;;;;3.72;1.40;;;;;;;9.98;65.96;98459.84;5032257;28;20297;-79
2022/05/28 21:43:27;;;;;;;3.50;1.75;;;;;;;9.88;66.30;98474.72;4998704;28;20038;-81
2022/05/28 21:45:53;;;;;;;;;;;;;;;9.99;66.04;98479.72;5032261;28;20124;-81
2022/05/28 21:48:18;;;;;;;4.18;2.13;;;;;;;9.91;65.95;98468.63;5031810;28;19995;-81
2022/05/28 21:50:46;;;;;;;;;;;;;;;9.94;67.25;98481.50;5031156;28;20041;-79
2022/05/28 21:53:11;;;;;;;;;;;;;;;9.85;67.17;98474.81;5031282;28;20272;-79
2022/05/28 21:55:38;;;;;;;3.30;1.65;;;;;;;9.79;66.96;98479.25;5032130;28;19975;-80
2022/05/28 21:58:04;;;;;;;3.80;1.60;;;;;;;9.70;67.31;98482.00;5027269;28;20037;-79
2022/05/28 22:00:29;;;;;;;;;;;;;;;9.85;67.08;98489.47;5020828;28;20477;-79
2022/05/28 22:02:55;;;;;;;3.33;1.30;;;;;;;9.90;66.30;98485.94;5030487;28;19935;-79
2022/05/28 22:05:23;;;;;;;4.65;1.90;;;;;;;9.86;66.19;98486.88;5016163;28;20076;-80
2022/05/28 22:07:48;;;;;;;4.78;1.35;;;;;;;9.71;66.65;98484.56;5030502;28;20071;-79
2022/05/28 22:10:14;;;;;;;;;;;;;;;9.77;66.44;98491.38;5032043;28;20128;-79
2022/05/28 22:12:49;;;;;;;3.90;1.40;;;;;;;9.62;67.18;98493.38;5032107;28;19925;-79
2022/05/28 22:15:19;;;;;;;5.75;1.58;;;;;;;9.50;67.93;98493.59;5015892;28;20484;-79
2022/05/28 22:17:45;;;;;;;2.90;1.50;;;;;;;9.47;67.42;98485.03;5030687;28;20041;-79
2022/05/28 22:20:11;;;;;;;;;;;;;;;9.61;68.15;98495.97;5015580;28;20025;-80
2022/05/28 22:22:37;;;;;;;4.47;1.50;;;;;;;9.49;67.22;98496.22;5035226;28;20059;-79
2022/05/28 22:25:03;;;;;;;;;;;;;;;9.57;67.78;98504.69;5034532;28;20041;-79
2022/05/28 22:27:29;;;;;;;4.43;1.52;;;;;;;9.49;67.45;98497.06;5034918;28;20383;-79
2022/05/28 22:29:54;;;;;;;;;;;;;;;9.55;68.05;98506.47;5034264;28;20033;-78
2022/05/28 22:32:22;;;;;;;5.00;1.60;;;;;;;9.48;67.89;98513.47;5034218;28;19983;-79
2022/05/28 22:34:47;;;;;;;3.17;1.40;;;;;;;9.49;68.88;98506.59;4987802;28;20111;-79
2022/05/28 22:37:13;;;;;;;;;;;;;;;9.55;68.42;98506.47;5035625;28;20037;-79
2022/05/28 22:39:39;;;;;;;4.45;1.40;;;;;;;9.57;68.32;98510.72;5007219;28;19948;-79
2022/05/28 22:42:04;;;;;;;;;;;;;;;9.79;68.76;98507.72;5017850;28;20053;-79
2022/05/28 22:47:14;;;;;;;4.40;1.52;;;;;;;9.91;67.48;98494.53;5010710;28;20052;-79
2022/05/28 22:49:39;;;;;;;;;;;;;;;10.21;66.75;98493.03;5017922;28;20025;-80
2022/05/28 22:52:06;;;;;;;5.10;1.50;;;;;;;10.15;66.26;98477.63;5018618;28;19948;-78
2022/05/28 22:54:31;;;;;;;;;;;;;;;10.31;65.63;98488.53;5034138;28;20030;-79
2022/05/28 22:56:57;;;;;;;3.10;1.40;;;;;;;10.21;65.46;98497.38;5033644;28;19986;-80
2022/05/28 22:59:23;;;;;;;;;;;;;;;10.24;66.00;98503.38;5026067;28;20612;-80
2022/05/28 23:01:49;;;;;;;2.17;1.35;;;;;;;10.07;65.16;98490.75;5027418;28;19924;-79
2022/05/28 23:04:14;;;;;;;;;;;;;;;10.13;66.73;98501.00;5021122;28;20477;-81
2022/05/28 23:06:40;;;;;;;3.03;1.30;;;;;;;9.98;66.26;98500.44;5034735;28;19921;-80
2022/05/28 23:09:05;;;;;;;;;;;;;;;9.93;66.72;98500.53;5016722;28;20030;-79
2022/05/28 23:11:31;;;;;;;3.35;1.52;;;;;;;9.89;67.02;98512.69;5033528;28;19923;-79
2022/05/28 23:13:57;;;;;;;;;;;;;;;9.95;67.44;98524.69;5034585;28;20164;-79
2022/05/28 23:16:23;;;;;;;4.78;2.40;;;;;;;9.89;67.41;98528.22;5034526;28;20410;-79
2022/05/28 23:18:48;;;;;;;;;;;;;;;9.87;67.36;98521.38;5033667;28;20099;-78
2022/05/28 23:21:16;;;;;;;6.40;3.08;;;;;;;9.82;67.79;98515.44;5032789;28;19917;-80
2022/05/28 23:26:26;;;;;;;4.45;2.15;;;;;;;9.98;67.82;98510.81;5018722;28;20053;-80
2022/05/28 23:28:51;;;;;;;;;;;;;;;10.18;66.99;98516.44;5034409;28;20167;-80
2022/05/28 23:31:37;;;;;;;3.45;2.20;;;;;;;10.36;66.34;98515.25;5033804;28;19963;-78
2022/05/28 23:34:02;;;;;;;2.20;0.98;;;;;;;10.14;65.04;98507.88;5030457;28;20069;-81
2022/05/28 23:36:32;;;;;;;;;;;;;;;9.91;66.13;98520.44;5004441;28;20083;-79
2022/05/28 23:38:58;;;;;;;1.85;0.90;;;;;;;9.83;67.04;98511.97;5033704;28;20426;-79
2022/05/28 23:41:24;;;;;;;;;;;;;;;9.98;65.72;98516.00;5032755;28;20041;-79
2022/05/28 23:43:50;;;;;;;2.47;0.85;;;;;;;9.82;65.59;98518.88;5032306;28;19917;-80
2022/05/28 23:46:25;;;;;;;;;;;;;;;9.84;66.02;98514.50;5029570;28;20038;-79
2022/05/28 23:48:51;;;;;;;3.17;0.80;;;;;;;9.75;65.66;98508.66;5022184;28;20374;-79
2022/05/28 23:51:16;;;;;;;;;;;;;;;9.88;66.70;98511.00;5033771;28;20033;-78
2022/05/28 23:53:45;;;;;;;3.97;1.00;;;;;;;10.02;65.59;98515.03;5033296;28;19940;-79
2022/05/28 23:56:15;;;;;;;1.73;0.90;;;;;;;10.04;65.52;98527.09;5018210;28;20042;-80
2022/05/28 23:58:41;;;;;;;1.95;0.77;;;;;;;9.99;64.79;98528.94;4986730;28;20037;-79
